sensor_id;sensor_type;location;lat;lon;timestamp;pressure;altitude;pressure_sealevel;temperature;humidity
63033;BME280;49121;38.932;-9.018;2022-12-18T00:00:46;146431.22;;;8.19;100.00
63033;BME280;49121;38.932;-9.018;2022-12-18T00:02:50;146421.13;;;8.15;100.00
63033;BME280;49121;38.932;-9.018;2022-12-18T00:04:50;146418.66;;;8.14;100.00
63033;BME280;49121;38.932;-9.018;2022-12-18T00:06:51;146417.34;;;8.14;100.00
63033;BME280;49121;38.932;-9.018;2022-12-18T00:08:52;146429.97;;;8.19;100.00
63033;BME280;49121;38.932;-9.018;2022-12-18T00:10:53;146432.47;;;8.20;100.00
63033;BME280;49121;38.932;-9.018;2022-12-18T00:12:54;146453.84;;;8.29;100.00
63033;BME280;49121;38.932;-9.018;2022-12-18T00:17:32;146431.22;;;8.19;100.00
63033;BME280;49121;38.932;-9.018;2022-12-18T00:19:33;146433.75;;;8.21;100.00
63033;BME280;49121;38.932;-9.018;2022-12-18T00:24:31;146460.19;;;8.31;100.00
63033;BME280;49121;38.932;-9.018;2022-12-18T00:26:34;146475.25;;;8.37;100.00
63033;BME280;49121;38.932;-9.018;2022-12-18T00:28:36;146482.88;;;8.41;100.00
63033;BME280;49121;38.932;-9.018;2022-12-18T00:31:16;146496.75;;;8.46;100.00
63033;BME280;49121;38.932;-9.018;2022-12-18T00:33:17;146509.31;;;8.51;100.00
63033;BME280;49121;38.932;-9.018;2022-12-18T00:35:18;146528.16;;;8.59;100.00
63033;BME280;49121;38.932;-9.018;2022-12-18T00:42:36;146577.31;;;8.79;100.00
63033;BME280;49121;38.932;-9.018;2022-12-18T00:44:55;146573.53;;;8.77;100.00
63033;BME280;49121;38.932;-9.018;2022-12-18T00:46:56;146552.13;;;8.69;100.00
63033;BME280;49121;38.932;-9.018;2022-12-18T00:48:57;146568.47;;;8.75;100.00
63033;BME280;49121;38.932;-9.018;2022-12-18T00:53:54;146557.16;;;8.71;100.00
63033;BME280;49121;38.932;-9.018;2022-12-18T01:01:33;146628.94;;;9.00;100.00
63033;BME280;49121;38.932;-9.018;2022-12-18T01:03:34;146631.44;;;9.01;100.00
63033;BME280;49121;38.932;-9.018;2022-12-18T01:05:38;146637.75;;;9.04;100.00
63033;BME280;49121;38.932;-9.018;2022-12-18T01:07:38;146642.78;;;9.06;100.00
63033;BME280;49121;38.932;-9.018;2022-12-18T01:09:39;146650.38;;;9.09;100.00
63033;BME280;49121;38.932;-9.018;2022-12-18T01:14:17;146690.63;;;9.25;100.00
63033;BME280;49121;38.932;-9.018;2022-12-18T01:16:18;146737.25;;;9.44;100.00
63033;BME280;49121;38.932;-9.018;2022-12-18T01:18:19;146749.88;;;9.49;100.00
63033;BME280;49121;38.932;-9.018;2022-12-18T01:20:19;146772.56;;;9.58;100.00
63033;BME280;49121;38.932;-9.018;2022-12-18T01:22:20;146775.03;;;9.59;100.00
63033;BME280;49121;38.932;-9.018;2022-12-18T01:24:20;146783.88;;;9.63;100.00
63033;BME280;49121;38.932;-9.018;2022-12-18T01:26:23;146781.38;;;9.62;100.00
63033;BME280;49121;38.932;-9.018;2022-12-18T01:31:23;146787.69;;;9.65;100.00
63033;BME280;49121;38.932;-9.018;2022-12-18T01:33:24;146804.06;;;9.71;100.00
63033;BME280;49121;38.932;-9.018;2022-12-18T01:35:25;146834.31;;;9.83;100.00
63033;BME280;49121;38.932;-9.018;2022-12-18T01:40:06;146922.50;;;10.19;100.00
63033;BME280;49121;38.932;-9.018;2022-12-18T01:42:14;146964.16;;;10.36;100.00
63033;BME280;49121;38.932;-9.018;2022-12-18T01:46:52;147020.91;;;10.59;100.00
63033;BME280;49121;38.932;-9.018;2022-12-18T01:48:56;147028.47;;;10.62;100.00
63033;BME280;49121;38.932;-9.018;2022-12-18T01:53:46;147052.44;;;10.72;100.00
63033;BME280;49121;38.932;-9.018;2022-12-18T01:55:56;147041.09;;;10.68;100.00
63033;BME280;49121;38.932;-9.018;2022-12-18T01:57:59;147048.66;;;10.71;100.00
63033;BME280;49121;38.932;-9.018;2022-12-18T02:00:05;147047.41;;;10.70;100.00
63033;BME280;49121;38.932;-9.018;2022-12-18T02:02:14;147037.28;;;10.66;100.00
63033;BME280;49121;38.932;-9.018;2022-12-18T02:06:23;147061.28;;;10.76;100.00
63033;BME280;49121;38.932;-9.018;2022-12-18T02:11:21;147034.81;;;10.65;100.00
63033;BME280;49121;38.932;-9.018;2022-12-18T02:21:28;146985.59;;;10.45;100.00
63033;BME280;49121;38.932;-9.018;2022-12-18T02:23:50;147018.41;;;10.58;100.00
63033;BME280;49121;38.932;-9.018;2022-12-18T02:28:25;147036.06;;;10.66;100.00
63033;BME280;49121;38.932;-9.018;2022-12-18T02:38:49;147009.56;;;10.55;100.00
63033;BME280;49121;38.932;-9.018;2022-12-18T02:40:53;147028.47;;;10.62;100.00
63033;BME280;49121;38.932;-9.018;2022-12-18T02:42:54;147031.00;;;10.63;100.00
63033;BME280;49121;38.932;-9.018;2022-12-18T02:44:55;147022.16;;;10.60;100.00
63033;BME280;49121;38.932;-9.018;2022-12-18T02:46:58;146993.19;;;10.48;100.00
63033;BME280;49121;38.932;-9.018;2022-12-18T02:51:29;146971.75;;;10.39;100.00
63033;BME280;49121;38.932;-9.018;2022-12-18T02:53:42;146960.41;;;10.35;100.00
63033;BME280;49121;38.932;-9.018;2022-12-18T02:55:57;146970.47;;;10.39;100.00
63033;BME280;49121;38.932;-9.018;2022-12-18T03:00:24;146974.25;;;10.40;100.00
63033;BME280;49121;38.932;-9.018;2022-12-18T03:05:10;147003.28;;;10.52;100.00
63033;BME280;49121;38.932;-9.018;2022-12-18T03:07:18;147012.06;;;10.56;100.00
63033;BME280;49121;38.932;-9.018;2022-12-18T03:09:29;147019.66;;;10.59;100.00
63033;BME280;49121;38.932;-9.018;2022-12-18T03:11:56;147015.88;;;10.57;100.00
63033;BME280;49121;38.932;-9.018;2022-12-18T03:14:19;147010.81;;;10.55;100.00
63033;BME280;49121;38.932;-9.018;2022-12-18T03:16:27;147010.81;;;10.55;100.00
63033;BME280;49121;38.932;-9.018;2022-12-18T03:18:38;147004.53;;;10.53;100.00
63033;BME280;49121;38.932;-9.018;2022-12-18T03:21:02;146998.22;;;10.50;100.00
63033;BME280;49121;38.932;-9.018;2022-12-18T03:23:16;146991.94;;;10.48;100.00
63033;BME280;49121;38.932;-9.018;2022-12-18T03:25:21;146980.53;;;10.43;100.00
63033;BME280;49121;38.932;-9.018;2022-12-18T03:27:29;146966.72;;;10.37;100.00
63033;BME280;49121;38.932;-9.018;2022-12-18T03:29:43;146936.38;;;10.25;100.00
63033;BME280;49121;38.932;-9.018;2022-12-18T03:31:53;146908.66;;;10.14;100.00
63033;BME280;49121;38.932;-9.018;2022-12-18T03:33:58;146903.63;;;10.12;100.00
63033;BME280;49121;38.932;-9.018;2022-12-18T03:36:11;146882.19;;;10.03;100.00
63033;BME280;49121;38.932;-9.018;2022-12-18T03:41:12;146824.22;;;9.79;100.00
63033;BME280;49121;38.932;-9.018;2022-12-18T03:45:46;146776.34;;;9.60;100.00
63033;BME280;49121;38.932;-9.018;2022-12-18T03:52:30;146710.81;;;9.33;100.00
63033;BME280;49121;38.932;-9.018;2022-12-18T03:54:35;146703.25;;;9.30;100.00
63033;BME280;49121;38.932;-9.018;2022-12-18T03:56:56;146686.91;;;9.24;100.00
63033;BME280;49121;38.932;-9.018;2022-12-18T03:58:59;146671.78;;;9.17;100.00
63033;BME280;49121;38.932;-9.018;2022-12-18T04:01:08;146664.19;;;9.14;100.00
63033;BME280;49121;38.932;-9.018;2022-12-18T04:03:32;146650.38;;;9.09;100.00
63033;BME280;49121;38.932;-9.018;2022-12-18T04:05:37;146642.78;;;9.06;100.00
63033;BME280;49121;38.932;-9.018;2022-12-18T04:07:38;146620.13;;;8.96;100.00
63033;BME280;49121;38.932;-9.018;2022-12-18T04:10:01;146625.16;;;8.98;100.00
63033;BME280;49121;38.932;-9.018;2022-12-18T04:14:45;146593.69;;;8.86;100.00
63033;BME280;49121;38.932;-9.018;2022-12-18T04:16:47;146577.31;;;8.79;100.00
63033;BME280;49121;38.932;-9.018;2022-12-18T04:18:50;146579.81;;;8.80;100.00
63033;BME280;49121;38.932;-9.018;2022-12-18T04:20:52;146573.53;;;8.77;100.00
63033;BME280;49121;38.932;-9.018;2022-12-18T04:22:53;146564.69;;;8.74;100.00
63033;BME280;49121;38.932;-9.018;2022-12-18T04:24:54;146553.38;;;8.69;100.00
63033;BME280;49121;38.932;-9.018;2022-12-18T04:27:10;146549.63;;;8.68;100.00
63033;BME280;49121;38.932;-9.018;2022-12-18T04:29:16;146554.66;;;8.70;100.00
63033;BME280;49121;38.932;-9.018;2022-12-18T04:31:17;146572.28;;;8.77;100.00
63033;BME280;49121;38.932;-9.018;2022-12-18T04:33:18;146552.13;;;8.69;100.00
63033;BME280;49121;38.932;-9.018;2022-12-18T04:35:19;146539.53;;;8.64;100.00
63033;BME280;49121;38.932;-9.018;2022-12-18T04:37:19;146529.47;;;8.59;100.00
63033;BME280;49121;38.932;-9.018;2022-12-18T04:39:23;146528.16;;;8.59;100.00
63033;BME280;49121;38.932;-9.018;2022-12-18T04:44:23;146544.59;;;8.66;100.00
63033;BME280;49121;38.932;-9.018;2022-12-18T04:46:42;146557.16;;;8.71;100.00
63033;BME280;49121;38.932;-9.018;2022-12-18T04:48:46;146557.16;;;8.71;100.00
63033;BME280;49121;38.932;-9.018;2022-12-18T04:50:47;146562.19;;;8.73;100.00
63033;BME280;49121;38.932;-9.018;2022-12-18T04:52:48;146576.06;;;8.78;100.00
63033;BME280;49121;38.932;-9.018;2022-12-18T04:57:08;146592.44;;;8.85;100.00
63033;BME280;49121;38.932;-9.018;2022-12-18T04:59:27;146594.94;;;8.86;100.00
63033;BME280;49121;38.932;-9.018;2022-12-18T05:01:46;146615.09;;;8.94;100.00
63033;BME280;49121;38.932;-9.018;2022-12-18T05:03:51;146598.72;;;8.88;100.00
63033;BME280;49121;38.932;-9.018;2022-12-18T05:05:52;146603.75;;;8.90;100.00
63033;BME280;49121;38.932;-9.018;2022-12-18T05:07:53;146616.34;;;8.95;100.00
63033;BME280;49121;38.932;-9.018;2022-12-18T05:09:53;146613.84;;;8.94;100.00
63033;BME280;49121;38.932;-9.018;2022-12-18T05:11:54;146612.59;;;8.93;100.00
63033;BME280;49121;38.932;-9.018;2022-12-18T05:16:35;146612.59;;;8.93;100.00
63033;BME280;49121;38.932;-9.018;2022-12-18T05:23:14;146605.00;;;8.90;100.00
63033;BME280;49121;38.932;-9.018;2022-12-18T05:25:15;146601.22;;;8.89;100.00
63033;BME280;49121;38.932;-9.018;2022-12-18T05:27:15;146596.16;;;8.87;100.00
63033;BME280;49121;38.932;-9.018;2022-12-18T05:31:54;146596.16;;;8.87;100.00
63033;BME280;49121;38.932;-9.018;2022-12-18T05:33:54;146593.69;;;8.86;100.00
63033;BME280;49121;38.932;-9.018;2022-12-18T05:35:56;146593.69;;;8.86;100.00
63033;BME280;49121;38.932;-9.018;2022-12-18T05:37:57;146589.88;;;8.84;100.00
63033;BME280;49121;38.932;-9.018;2022-12-18T05:39:57;146601.22;;;8.89;100.00
63033;BME280;49121;38.932;-9.018;2022-12-18T05:42:16;146593.69;;;8.86;100.00
63033;BME280;49121;38.932;-9.018;2022-12-18T05:44:36;146597.47;;;8.87;100.00
63033;BME280;49121;38.932;-9.018;2022-12-18T05:46:55;146605.00;;;8.90;100.00
63033;BME280;49121;38.932;-9.018;2022-12-18T05:48:59;146625.16;;;8.98;100.00
63033;BME280;49121;38.932;-9.018;2022-12-18T05:51:06;146637.75;;;9.04;100.00
63033;BME280;49121;38.932;-9.018;2022-12-18T05:53:07;146649.06;;;9.08;100.00
63033;BME280;49121;38.932;-9.018;2022-12-18T05:57:39;146676.81;;;9.19;100.00
63033;BME280;49121;38.932;-9.018;2022-12-18T05:59:44;146688.16;;;9.24;100.00
63033;BME280;49121;38.932;-9.018;2022-12-18T06:01:45;146708.31;;;9.32;100.00
63033;BME280;49121;38.932;-9.018;2022-12-18T06:03:46;146720.88;;;9.37;100.00
63033;BME280;49121;38.932;-9.018;2022-12-18T06:05:47;146730.97;;;9.41;100.00
63033;BME280;49121;38.932;-9.018;2022-12-18T06:07:47;146742.31;;;9.46;100.00
63033;BME280;49121;38.932;-9.018;2022-12-18T06:10:07;146741.06;;;9.46;100.00
63033;BME280;49121;38.932;-9.018;2022-12-18T06:12:07;146748.59;;;9.49;100.00
63033;BME280;49121;38.932;-9.018;2022-12-18T06:14:08;146754.94;;;9.51;100.00
63033;BME280;49121;38.932;-9.018;2022-12-18T06:16:09;146753.63;;;9.51;100.00
63033;BME280;49121;38.932;-9.018;2022-12-18T06:18:09;146763.72;;;9.55;100.00
63033;BME280;49121;38.932;-9.018;2022-12-18T06:22:31;146763.72;;;9.55;100.00
63033;BME280;49121;38.932;-9.018;2022-12-18T06:24:32;146759.97;;;9.53;100.00
63033;BME280;49121;38.932;-9.018;2022-12-18T06:26:33;146763.72;;;9.55;100.00
63033;BME280;49121;38.932;-9.018;2022-12-18T06:28:34;146741.06;;;9.46;100.00
63033;BME280;49121;38.932;-9.018;2022-12-18T06:30:35;146773.81;;;9.59;100.00
63033;BME280;49121;38.932;-9.018;2022-12-18T06:32:51;146772.56;;;9.58;100.00
63033;BME280;49121;38.932;-9.018;2022-12-18T06:34:52;146773.81;;;9.59;100.00
63033;BME280;49121;38.932;-9.018;2022-12-18T06:37:12;146780.09;;;9.61;100.00
63033;BME280;49121;38.932;-9.018;2022-12-18T06:39:13;146770.00;;;9.57;100.00
63033;BME280;49121;38.932;-9.018;2022-12-18T06:41:16;146757.44;;;9.52;100.00
63033;BME280;49121;38.932;-9.018;2022-12-18T06:43:20;146772.56;;;9.58;100.00
63033;BME280;49121;38.932;-9.018;2022-12-18T06:45:24;146773.81;;;9.59;100.00
63033;BME280;49121;38.932;-9.018;2022-12-18T06:47:25;146762.47;;;9.54;100.00
63033;BME280;49121;38.932;-9.018;2022-12-18T06:49:25;146749.88;;;9.49;100.00
63033;BME280;49121;38.932;-9.018;2022-12-18T06:51:26;146746.09;;;9.48;100.00
63033;BME280;49121;38.932;-9.018;2022-12-18T06:53:27;146742.31;;;9.46;100.00
63033;BME280;49121;38.932;-9.018;2022-12-18T06:55:28;146741.06;;;9.46;100.00
63033;BME280;49121;38.932;-9.018;2022-12-18T06:57:28;146748.59;;;9.49;100.00
63033;BME280;49121;38.932;-9.018;2022-12-18T06:59:29;146751.13;;;9.50;100.00
63033;BME280;49121;38.932;-9.018;2022-12-18T07:01:29;146780.09;;;9.61;100.00
63033;BME280;49121;38.932;-9.018;2022-12-18T07:03:30;146793.97;;;9.67;100.00
63033;BME280;49121;38.932;-9.018;2022-12-18T07:08:28;146827.97;;;9.81;100.00
63033;BME280;49121;38.932;-9.018;2022-12-18T07:11:06;146829.28;;;9.81;100.00
63033;BME280;49121;38.932;-9.018;2022-12-18T07:13:06;146824.22;;;9.79;100.00
63033;BME280;49121;38.932;-9.018;2022-12-18T07:15:07;146817.94;;;9.77;100.00
63033;BME280;49121;38.932;-9.018;2022-12-18T07:17:08;146838.06;;;9.85;100.00
63033;BME280;49121;38.932;-9.018;2022-12-18T07:19:09;146850.69;;;9.90;100.00
63033;BME280;49121;38.932;-9.018;2022-12-18T07:26:11;146872.13;;;9.99;100.00
63033;BME280;49121;38.932;-9.018;2022-12-18T07:28:12;146865.81;;;9.96;100.00
63033;BME280;49121;38.932;-9.018;2022-12-18T07:30:12;146868.31;;;9.97;100.00
63033;BME280;49121;38.932;-9.018;2022-12-18T07:32:13;146878.41;;;10.01;100.00
63033;BME280;49121;38.932;-9.018;2022-12-18T07:34:14;146874.63;;;10.00;100.00
63033;BME280;49121;38.932;-9.018;2022-12-18T07:36:15;146875.91;;;10.00;100.00
63033;BME280;49121;38.932;-9.018;2022-12-18T07:38:16;146870.88;;;9.98;100.00
63033;BME280;49121;38.932;-9.018;2022-12-18T07:40:16;146873.38;;;9.99;100.00
63033;BME280;49121;38.932;-9.018;2022-12-18T07:42:17;146868.31;;;9.97;100.00
63033;BME280;49121;38.932;-9.018;2022-12-18T07:44:33;146865.81;;;9.96;100.00
63033;BME280;49121;38.932;-9.018;2022-12-18T07:46:34;146869.56;;;9.98;100.00
63033;BME280;49121;38.932;-9.018;2022-12-18T07:48:34;146865.81;;;9.96;100.00
63033;BME280;49121;38.932;-9.018;2022-12-18T07:50:36;146848.13;;;9.89;100.00
63033;BME280;49121;38.932;-9.018;2022-12-18T07:52:55;146863.28;;;9.95;100.00
63033;BME280;49121;38.932;-9.018;2022-12-18T07:54:56;146856.97;;;9.93;100.00
63033;BME280;49121;38.932;-9.018;2022-12-18T07:56:57;146869.56;;;9.98;100.00
63033;BME280;49121;38.932;-9.018;2022-12-18T07:58:58;146863.28;;;9.95;100.00
63033;BME280;49121;38.932;-9.018;2022-12-18T08:01:07;146873.38;;;9.99;100.00
63033;BME280;49121;38.932;-9.018;2022-12-18T08:03:26;146894.78;;;10.08;100.00
63033;BME280;49121;38.932;-9.018;2022-12-18T08:05:36;146902.38;;;10.11;100.00
63033;BME280;49121;38.932;-9.018;2022-12-18T08:07:36;146908.66;;;10.14;100.00
63033;BME280;49121;38.932;-9.018;2022-12-18T08:09:37;146923.81;;;10.20;100.00
63033;BME280;49121;38.932;-9.018;2022-12-18T08:11:38;146943.94;;;10.28;100.00
63033;BME280;49121;38.932;-9.018;2022-12-18T08:13:38;146959.13;;;10.34;100.00
63033;BME280;49121;38.932;-9.018;2022-12-18T08:15:39;146960.41;;;10.35;100.00
63033;BME280;49121;38.932;-9.018;2022-12-18T08:22:37;146976.78;;;10.41;100.00
63033;BME280;49121;38.932;-9.018;2022-12-18T08:24:37;146989.38;;;10.47;100.00
63033;BME280;49121;38.932;-9.018;2022-12-18T08:26:38;146993.19;;;10.48;100.00
63033;BME280;49121;38.932;-9.018;2022-12-18T08:28:58;146984.34;;;10.44;100.00
63033;BME280;49121;38.932;-9.018;2022-12-18T08:30:59;146988.13;;;10.46;100.00
63033;BME280;49121;38.932;-9.018;2022-12-18T08:33:00;146990.63;;;10.47;100.00
63033;BME280;49121;38.932;-9.018;2022-12-18T08:35:00;147007.03;;;10.54;100.00
63033;BME280;49121;38.932;-9.018;2022-12-18T08:37:01;147023.47;;;10.60;100.00
63033;BME280;49121;38.932;-9.018;2022-12-18T08:39:01;147032.25;;;10.64;100.00
63033;BME280;49121;38.932;-9.018;2022-12-18T08:41:08;147041.09;;;10.68;100.00
63033;BME280;49121;38.932;-9.018;2022-12-18T08:43:10;147061.28;;;10.76;100.00
63033;BME280;49121;38.932;-9.018;2022-12-18T08:45:29;147085.22;;;10.85;100.00
63033;BME280;49121;38.932;-9.018;2022-12-18T08:47:30;147102.91;;;10.93;100.00
63033;BME280;49121;38.932;-9.018;2022-12-18T08:49:32;147118.00;;;10.99;100.00
63033;BME280;49121;38.932;-9.018;2022-12-18T08:51:33;147131.88;;;11.04;100.00
63033;BME280;49121;38.932;-9.018;2022-12-18T08:53:34;147120.53;;;11.00;100.00
63033;BME280;49121;38.932;-9.018;2022-12-18T08:55:34;147114.25;;;10.97;100.00
63033;BME280;49121;38.932;-9.018;2022-12-18T08:58:13;147157.13;;;11.15;100.00
63033;BME280;49121;38.932;-9.018;2022-12-18T09:08:27;147279.50;;;11.64;100.00
63033;BME280;49121;38.932;-9.018;2022-12-18T09:10:28;147314.88;;;11.79;100.00
63033;BME280;49121;38.932;-9.018;2022-12-18T09:12:28;147336.31;;;11.87;100.00
63033;BME280;49121;38.932;-9.018;2022-12-18T09:14:29;147359.06;;;11.97;100.00
63033;BME280;49121;38.932;-9.018;2022-12-18T09:16:30;147351.53;;;11.94;100.00
63033;BME280;49121;38.932;-9.018;2022-12-18T09:18:31;147356.56;;;11.96;100.00
63033;BME280;49121;38.932;-9.018;2022-12-18T09:20:32;147364.13;;;11.99;100.00
63033;BME280;49121;38.932;-9.018;2022-12-18T09:22:32;147346.47;;;11.92;100.00
63033;BME280;49121;38.932;-9.018;2022-12-18T09:24:33;147351.53;;;11.94;100.00
63033;BME280;49121;38.932;-9.018;2022-12-18T09:28:53;147309.81;;;11.77;100.00
63033;BME280;49121;38.932;-9.018;2022-12-18T09:30:54;147321.16;;;11.81;100.00
63033;BME280;49121;38.932;-9.018;2022-12-18T09:32:55;147336.31;;;11.87;100.00
63033;BME280;49121;38.932;-9.018;2022-12-18T09:34:55;147366.66;;;12.00;100.00
63033;BME280;49121;38.932;-9.018;2022-12-18T09:36:56;147390.63;;;12.10;100.00
63033;BME280;49121;38.932;-9.018;2022-12-18T09:48:52;147371.72;;;12.02;100.00
63033;BME280;49121;38.932;-9.018;2022-12-18T09:50:58;147395.69;;;12.12;100.00
63033;BME280;49121;38.932;-9.018;2022-12-18T09:53:22;147426.00;;;12.24;100.00
63033;BME280;49121;38.932;-9.018;2022-12-18T09:55:37;147453.75;;;12.35;100.00
63033;BME280;49121;38.932;-9.018;2022-12-18T09:57:45;147463.84;;;12.39;100.00
63033;BME280;49121;38.932;-9.018;2022-12-18T10:02:18;147580.03;;;12.86;100.00
63033;BME280;49121;38.932;-9.018;2022-12-18T10:04:21;147610.38;;;12.99;100.00
63033;BME280;49121;38.932;-9.018;2022-12-18T10:11:20;147654.56;;;13.17;100.00
63033;BME280;49121;38.932;-9.018;2022-12-18T10:13:31;147624.25;;;13.04;100.00
63033;BME280;49121;38.932;-9.018;2022-12-18T10:15:40;147573.75;;;12.84;100.00
63033;BME280;49121;38.932;-9.018;2022-12-18T10:18:06;147523.19;;;12.63;100.00
63033;BME280;49121;38.932;-9.018;2022-12-18T10:20:46;147567.44;;;12.81;100.00
63033;BME280;49121;38.932;-9.018;2022-12-18T10:27:58;147485.31;;;12.48;100.00
63033;BME280;49121;38.932;-9.018;2022-12-18T10:30:20;147470.16;;;12.42;100.00
63033;BME280;49121;38.932;-9.018;2022-12-18T10:32:24;147486.56;;;12.48;100.00
63033;BME280;49121;38.932;-9.018;2022-12-18T10:34:25;147500.50;;;12.54;100.00
63033;BME280;49121;38.932;-9.018;2022-12-18T10:36:25;147495.44;;;12.52;100.00
63033;BME280;49121;38.932;-9.018;2022-12-18T10:38:32;147494.19;;;12.52;100.00
63033;BME280;49121;38.932;-9.018;2022-12-18T10:40:48;147497.94;;;12.53;100.00
63033;BME280;49121;38.932;-9.018;2022-12-18T10:43:10;147492.94;;;12.51;100.00
63033;BME280;49121;38.932;-9.018;2022-12-18T10:45:15;147518.16;;;12.61;100.00
63033;BME280;49121;38.932;-9.018;2022-12-18T10:47:36;147535.88;;;12.68;100.00
63033;BME280;49121;38.932;-9.018;2022-12-18T10:52:23;147523.19;;;12.63;100.00
63033;BME280;49121;38.932;-9.018;2022-12-18T10:54:25;147547.22;;;12.73;100.00
63033;BME280;49121;38.932;-9.018;2022-12-18T10:56:27;147576.25;;;12.85;100.00
63033;BME280;49121;38.932;-9.018;2022-12-18T11:00:31;147625.53;;;13.05;100.00
63033;BME280;49121;38.932;-9.018;2022-12-18T11:02:36;147672.28;;;13.24;100.00
63033;BME280;49121;38.932;-9.018;2022-12-18T11:04:55;147668.50;;;13.22;100.00
63033;BME280;49121;38.932;-9.018;2022-12-18T11:07:08;147712.75;;;13.40;100.00
63033;BME280;49121;38.932;-9.018;2022-12-18T11:09:20;147782.25;;;13.68;100.00
63033;BME280;49121;38.932;-9.018;2022-12-18T11:11:22;147834.06;;;13.89;100.00
63033;BME280;49121;38.932;-9.018;2022-12-18T11:13:29;147807.53;;;13.79;100.00
63033;BME280;49121;38.932;-9.018;2022-12-18T11:15:31;147806.28;;;13.78;100.00
63033;BME280;49121;38.932;-9.018;2022-12-18T11:17:32;147849.25;;;13.96;100.00
63033;BME280;49121;38.932;-9.018;2022-12-18T11:19:38;147820.16;;;13.84;100.00
63033;BME280;49121;38.932;-9.018;2022-12-18T11:21:41;147859.38;;;14.00;100.00
63033;BME280;49121;38.932;-9.018;2022-12-18T11:24:00;147840.38;;;13.92;100.00
63033;BME280;49121;38.932;-9.018;2022-12-18T11:26:20;147808.78;;;13.79;100.00
63033;BME280;49121;38.932;-9.018;2022-12-18T11:29:08;147794.91;;;13.74;100.00
63033;BME280;49121;38.932;-9.018;2022-12-18T11:30:48;147813.84;;;13.81;100.00
63033;BME280;49121;38.932;-9.018;2022-12-18T11:32:55;147848.00;;;13.95;100.00
63033;BME280;49121;38.932;-9.018;2022-12-18T11:35:09;147874.53;;;14.06;100.00
63033;BME280;49121;38.932;-9.018;2022-12-18T11:37:13;147930.16;;;14.28;100.00
63033;BME280;49121;38.932;-9.018;2022-12-18T11:41:32;147973.13;;;14.46;100.00
63033;BME280;49121;38.932;-9.018;2022-12-18T11:49:33;147892.22;;;14.13;100.00
63033;BME280;49121;38.932;-9.018;2022-12-18T11:51:43;147873.28;;;14.05;100.00
63033;BME280;49121;38.932;-9.018;2022-12-18T11:53:48;147912.47;;;14.21;100.00
63033;BME280;49121;38.932;-9.018;2022-12-18T11:56:05;147898.53;;;14.16;100.00
63033;BME280;49121;38.932;-9.018;2022-12-18T12:07:42;147805.03;;;13.78;100.00
63033;BME280;49121;38.932;-9.018;2022-12-18T12:17:18;147748.13;;;13.55;100.00
63033;BME280;49121;38.932;-9.018;2022-12-18T12:26:51;147717.81;;;13.42;100.00
63033;BME280;49121;38.932;-9.018;2022-12-18T12:46:03;147866.94;;;14.03;100.00
63033;BME280;49121;38.932;-9.018;2022-12-18T12:48:09;147887.16;;;14.11;100.00
63033;BME280;49121;38.932;-9.018;2022-12-18T12:50:16;147896.03;;;14.15;100.00
63033;BME280;49121;38.932;-9.018;2022-12-18T12:52:28;147917.53;;;14.23;100.00
63033;BME280;49121;38.932;-9.018;2022-12-18T12:57:16;147906.16;;;14.19;100.00
63033;BME280;49121;38.932;-9.018;2022-12-18T13:07:19;147897.28;;;14.15;100.00
63033;BME280;49121;38.932;-9.018;2022-12-18T13:09:12;147908.66;;;14.20;100.00
63033;BME280;49121;38.932;-9.018;2022-12-18T13:11:15;147884.66;;;14.10;100.00
63033;BME280;49121;38.932;-9.018;2022-12-18T13:13:56;147885.91;;;14.10;100.00
63033;BME280;49121;38.932;-9.018;2022-12-18T13:16:06;147906.16;;;14.19;100.00
63033;BME280;49121;38.932;-9.018;2022-12-18T13:18:25;147927.63;;;14.27;100.00
63033;BME280;49121;38.932;-9.018;2022-12-18T13:22:54;147965.56;;;14.43;100.00
63033;BME280;49121;38.932;-9.018;2022-12-18T13:24:55;147961.75;;;14.41;100.00
63033;BME280;49121;38.932;-9.018;2022-12-18T13:26:56;148012.41;;;14.62;100.00
63033;BME280;49121;38.932;-9.018;2022-12-18T13:28:57;148002.28;;;14.58;100.00
63033;BME280;49121;38.932;-9.018;2022-12-18T13:30:59;148031.34;;;14.69;100.00
63033;BME280;49121;38.932;-9.018;2022-12-18T13:39:52;148103.47;;;14.99;100.00
63033;BME280;49121;38.932;-9.018;2022-12-18T13:45:00;148127.53;;;15.08;100.00
63033;BME280;49121;38.932;-9.018;2022-12-18T13:47:03;148099.66;;;14.97;100.00
63033;BME280;49121;38.932;-9.018;2022-12-18T13:51:17;148080.72;;;14.89;100.00
63033;BME280;49121;38.932;-9.018;2022-12-18T13:53:23;148080.72;;;14.89;100.00
63033;BME280;49121;38.932;-9.018;2022-12-18T13:55:25;148054.16;;;14.79;100.00
63033;BME280;49121;38.932;-9.018;2022-12-18T13:59:35;148038.97;;;14.72;100.00
63033;BME280;49121;38.932;-9.018;2022-12-18T14:01:36;148052.91;;;14.78;100.00
63033;BME280;49121;38.932;-9.018;2022-12-18T14:03:45;148097.16;;;14.96;100.00
63033;BME280;49121;38.932;-9.018;2022-12-18T14:05:52;148093.34;;;14.95;100.00
63033;BME280;49121;38.932;-9.018;2022-12-18T14:07:54;148093.34;;;14.95;100.00
63033;BME280;49121;38.932;-9.018;2022-12-18T14:09:57;148080.72;;;14.89;100.00
63033;BME280;49121;38.932;-9.018;2022-12-18T14:11:59;148065.53;;;14.83;100.00
63033;BME280;49121;38.932;-9.018;2022-12-18T14:14:19;148079.47;;;14.89;100.00
63033;BME280;49121;38.932;-9.018;2022-12-18T14:16:20;148080.72;;;14.89;100.00
63033;BME280;49121;38.932;-9.018;2022-12-18T14:21:03;148122.47;;;15.06;100.00
63033;BME280;49121;38.932;-9.018;2022-12-18T14:25:28;148118.66;;;15.05;100.00
63033;BME280;49121;38.932;-9.018;2022-12-18T14:27:37;148140.16;;;15.13;100.00
63033;BME280;49121;38.932;-9.018;2022-12-18T14:29:58;148146.47;;;15.16;100.00
63033;BME280;49121;38.932;-9.018;2022-12-18T14:32:43;148147.75;;;15.17;100.00
63033;BME280;49121;38.932;-9.018;2022-12-18T14:35:12;148160.41;;;15.22;100.00